sensor_id;sensor_type;location;lat;lon;timestamp;temperature;humidity
4964;DHT22;2497;47.410;9.740;2023-05-29T00:01:56;15.20;99.90
4964;DHT22;2497;47.410;9.740;2023-05-29T00:04:23;15.10;99.90
4964;DHT22;2497;47.410;9.740;2023-05-29T00:06:50;15.10;99.90
4964;DHT22;2497;47.410;9.740;2023-05-29T00:09:17;15.10;99.90
4964;DHT22;2497;47.410;9.740;2023-05-29T00:11:44;15.10;99.90
4964;DHT22;2497;47.410;9.740;2023-05-29T00:14:16;15.00;99.90
4964;DHT22;2497;47.410;9.740;2023-05-29T00:16:45;15.00;99.90
4964;DHT22;2497;47.410;9.740;2023-05-29T00:19:14;14.90;99.90
4964;DHT22;2497;47.410;9.740;2023-05-29T00:21:42;14.90;99.90
4964;DHT22;2497;47.410;9.740;2023-05-29T00:24:09;14.90;99.90
4964;DHT22;2497;47.410;9.740;2023-05-29T00:26:36;14.90;99.90
4964;DHT22;2497;47.410;9.740;2023-05-29T00:29:03;14.90;99.90
4964;DHT22;2497;47.410;9.740;2023-05-29T00:31:30;14.80;99.90
4964;DHT22;2497;47.410;9.740;2023-05-29T00:33:57;14.90;99.90
4964;DHT22;2497;47.410;9.740;2023-05-29T00:36:26;14.90;99.90
4964;DHT22;2497;47.410;9.740;2023-05-29T00:38:54;14.80;99.90
4964;DHT22;2497;47.410;9.740;2023-05-29T00:41:21;14.80;99.90
4964;DHT22;2497;47.410;9.740;2023-05-29T00:43:48;14.80;99.90
4964;DHT22;2497;47.410;9.740;2023-05-29T00:46:16;14.80;99.90
4964;DHT22;2497;47.410;9.740;2023-05-29T00:48:43;14.70;99.90
4964;DHT22;2497;47.410;9.740;2023-05-29T00:51:13;14.70;99.90
4964;DHT22;2497;47.410;9.740;2023-05-29T00:53:44;14.70;99.90
4964;DHT22;2497;47.410;9.740;2023-05-29T00:56:12;14.70;99.90
4964;DHT22;2497;47.410;9.740;2023-05-29T00:58:40;14.60;99.90
4964;DHT22;2497;47.410;9.740;2023-05-29T01:01:08;14.60;99.90
4964;DHT22;2497;47.410;9.740;2023-05-29T01:03:36;14.60;99.90
4964;DHT22;2497;47.410;9.740;2023-05-29T01:06:03;14.60;99.90
4964;DHT22;2497;47.410;9.740;2023-05-29T01:08:30;14.50;99.90
4964;DHT22;2497;47.410;9.740;2023-05-29T01:11:04;14.50;99.90
4964;DHT22;2497;47.410;9.740;2023-05-29T01:13:34;14.50;99.90
4964;DHT22;2497;47.410;9.740;2023-05-29T01:16:08;14.50;99.90
4964;DHT22;2497;47.410;9.740;2023-05-29T01:18:50;14.40;99.90
4964;DHT22;2497;47.410;9.740;2023-05-29T01:21:26;14.40;99.90
4964;DHT22;2497;47.410;9.740;2023-05-29T01:24:03;14.40;99.90
4964;DHT22;2497;47.410;9.740;2023-05-29T01:26:55;14.40;99.90
4964;DHT22;2497;47.410;9.740;2023-05-29T01:29:28;14.30;99.90
4964;DHT22;2497;47.410;9.740;2023-05-29T01:31:57;14.30;99.90
4964;DHT22;2497;47.410;9.740;2023-05-29T01:34:27;14.30;99.90
4964;DHT22;2497;47.410;9.740;2023-05-29T01:36:54;14.20;99.90
4964;DHT22;2497;47.410;9.740;2023-05-29T01:39:21;14.20;99.90
4964;DHT22;2497;47.410;9.740;2023-05-29T01:41:48;14.10;99.90
4964;DHT22;2497;47.410;9.740;2023-05-29T01:44:18;14.20;99.90
4964;DHT22;2497;47.410;9.740;2023-05-29T01:46:46;14.20;99.90
4964;DHT22;2497;47.410;9.740;2023-05-29T01:49:15;14.20;99.90
4964;DHT22;2497;47.410;9.740;2023-05-29T01:51:43;14.10;99.90
4964;DHT22;2497;47.410;9.740;2023-05-29T01:54:10;14.00;99.90
4964;DHT22;2497;47.410;9.740;2023-05-29T01:56:44;14.00;99.90
4964;DHT22;2497;47.410;9.740;2023-05-29T01:59:12;14.00;99.90
4964;DHT22;2497;47.410;9.740;2023-05-29T02:01:41;13.90;99.90
4964;DHT22;2497;47.410;9.740;2023-05-29T02:04:08;13.90;99.90
4964;DHT22;2497;47.410;9.740;2023-05-29T02:06:35;13.90;99.90
4964;DHT22;2497;47.410;9.740;2023-05-29T02:09:03;13.90;99.90
4964;DHT22;2497;47.410;9.740;2023-05-29T02:11:31;13.80;99.90
4964;DHT22;2497;47.410;9.740;2023-05-29T02:13:58;13.90;99.90
4964;DHT22;2497;47.410;9.740;2023-05-29T02:16:27;13.80;99.90
4964;DHT22;2497;47.410;9.740;2023-05-29T02:18:56;13.80;99.90
4964;DHT22;2497;47.410;9.740;2023-05-29T02:21:23;13.80;99.90
4964;DHT22;2497;47.410;9.740;2023-05-29T02:23:50;13.80;99.90
4964;DHT22;2497;47.410;9.740;2023-05-29T02:26:17;13.70;99.90
4964;DHT22;2497;47.410;9.740;2023-05-29T02:28:44;13.70;99.90
4964;DHT22;2497;47.410;9.740;2023-05-29T02:31:11;13.70;99.90
4964;DHT22;2497;47.410;9.740;2023-05-29T02:33:38;13.70;99.90
4964;DHT22;2497;47.410;9.740;2023-05-29T02:36:07;13.70;99.90
4964;DHT22;2497;47.410;9.740;2023-05-29T02:38:37;13.70;99.90
4964;DHT22;2497;47.410;9.740;2023-05-29T02:41:04;13.60;99.90
4964;DHT22;2497;47.410;9.740;2023-05-29T02:43:31;13.70;99.90
4964;DHT22;2497;47.410;9.740;2023-05-29T02:45:58;13.70;99.90
4964;DHT22;2497;47.410;9.740;2023-05-29T02:48:25;13.70;99.90
4964;DHT22;2497;47.410;9.740;2023-05-29T02:50:55;13.60;99.90
4964;DHT22;2497;47.410;9.740;2023-05-29T02:53:24;13.60;99.90
4964;DHT22;2497;47.410;9.740;2023-05-29T02:55:51;13.60;99.90
4964;DHT22;2497;47.410;9.740;2023-05-29T02:58:18;13.50;99.90
4964;DHT22;2497;47.410;9.740;2023-05-29T03:00:46;13.60;99.90
4964;DHT22;2497;47.410;9.740;2023-05-29T03:03:14;13.60;99.90
4964;DHT22;2497;47.410;9.740;2023-05-29T03:05:41;13.60;99.90
4964;DHT22;2497;47.410;9.740;2023-05-29T03:08:08;13.60;99.90
4964;DHT22;2497;47.410;9.740;2023-05-29T03:10:37;13.60;99.90
4964;DHT22;2497;47.410;9.740;2023-05-29T03:13:04;13.50;99.90
4964;DHT22;2497;47.410;9.740;2023-05-29T03:15:31;13.60;99.90
4964;DHT22;2497;47.410;9.740;2023-05-29T03:17:58;13.50;99.90
4964;DHT22;2497;47.410;9.740;2023-05-29T03:20:25;13.50;99.90
4964;DHT22;2497;47.410;9.740;2023-05-29T03:22:53;13.40;99.90
4964;DHT22;2497;47.410;9.740;2023-05-29T03:25:21;13.40;99.90
4964;DHT22;2497;47.410;9.740;2023-05-29T03:27:49;13.40;99.90
4964;DHT22;2497;47.410;9.740;2023-05-29T03:30:17;13.40;99.90
4964;DHT22;2497;47.410;9.740;2023-05-29T03:32:45;13.30;99.90
4964;DHT22;2497;47.410;9.740;2023-05-29T03:35:13;13.20;99.90
4964;DHT22;2497;47.410;9.740;2023-05-29T03:37:40;13.10;99.90
4964;DHT22;2497;47.410;9.740;2023-05-29T03:40:08;13.10;99.90
4964;DHT22;2497;47.410;9.740;2023-05-29T03:42:36;13.00;99.90
4964;DHT22;2497;47.410;9.740;2023-05-29T03:45:12;13.00;99.90
4964;DHT22;2497;47.410;9.740;2023-05-29T03:47:39;13.00;99.90
4964;DHT22;2497;47.410;9.740;2023-05-29T03:50:06;13.00;99.90
4964;DHT22;2497;47.410;9.740;2023-05-29T03:52:34;13.10;99.90
4964;DHT22;2497;47.410;9.740;2023-05-29T03:55:02;13.10;99.90
4964;DHT22;2497;47.410;9.740;2023-05-29T03:57:29;13.00;99.90
4964;DHT22;2497;47.410;9.740;2023-05-29T03:59:56;13.00;99.90
4964;DHT22;2497;47.410;9.740;2023-05-29T04:02:24;12.90;99.90
4964;DHT22;2497;47.410;9.740;2023-05-29T04:04:51;12.90;99.90
4964;DHT22;2497;47.410;9.740;2023-05-29T04:07:21;13.00;99.90
4964;DHT22;2497;47.410;9.740;2023-05-29T04:09:48;13.00;99.90
4964;DHT22;2497;47.410;9.740;2023-05-29T04:12:15;12.90;99.90
4964;DHT22;2497;47.410;9.740;2023-05-29T04:14:42;12.90;99.90
4964;DHT22;2497;47.410;9.740;2023-05-29T04:17:09;13.00;99.90
4964;DHT22;2497;47.410;9.740;2023-05-29T04:19:38;12.90;99.90
4964;DHT22;2497;47.410;9.740;2023-05-29T04:22:05;12.80;99.90
4964;DHT22;2497;47.410;9.740;2023-05-29T04:24:33;12.90;99.90
4964;DHT22;2497;47.410;9.740;2023-05-29T04:27:01;13.00;99.90
4964;DHT22;2497;47.410;9.740;2023-05-29T04:29:28;13.00;99.90
4964;DHT22;2497;47.410;9.740;2023-05-29T04:31:56;13.00;99.90
4964;DHT22;2497;47.410;9.740;2023-05-29T04:34:23;13.10;99.90
4964;DHT22;2497;47.410;9.740;2023-05-29T04:36:52;13.10;99.90
4964;DHT22;2497;47.410;9.740;2023-05-29T04:39:19;13.30;99.90
4964;DHT22;2497;47.410;9.740;2023-05-29T04:41:47;13.30;99.90
4964;DHT22;2497;47.410;9.740;2023-05-29T04:44:15;13.30;99.90
4964;DHT22;2497;47.410;9.740;2023-05-29T04:46:42;13.30;99.90
4964;DHT22;2497;47.410;9.740;2023-05-29T04:49:10;13.30;99.90
4964;DHT22;2497;47.410;9.740;2023-05-29T04:51:38;13.40;99.90
4964;DHT22;2497;47.410;9.740;2023-05-29T04:54:07;13.40;99.90
4964;DHT22;2497;47.410;9.740;2023-05-29T04:56:34;13.50;99.90
4964;DHT22;2497;47.410;9.740;2023-05-29T04:59:02;13.60;99.90
4964;DHT22;2497;47.410;9.740;2023-05-29T05:01:29;13.70;99.90
4964;DHT22;2497;47.410;9.740;2023-05-29T05:03:59;13.80;99.90
4964;DHT22;2497;47.410;9.740;2023-05-29T05:06:26;13.80;99.90
4964;DHT22;2497;47.410;9.740;2023-05-29T05:08:54;13.90;99.90
4964;DHT22;2497;47.410;9.740;2023-05-29T05:11:23;13.80;99.90
4964;DHT22;2497;47.410;9.740;2023-05-29T05:13:51;13.80;99.90
4964;DHT22;2497;47.410;9.740;2023-05-29T05:16:18;13.80;99.90
4964;DHT22;2497;47.410;9.740;2023-05-29T05:18:45;13.80;99.90
4964;DHT22;2497;47.410;9.740;2023-05-29T05:21:12;13.90;99.90
4964;DHT22;2497;47.410;9.740;2023-05-29T05:23:40;14.00;99.90
4964;DHT22;2497;47.410;9.740;2023-05-29T05:26:07;14.00;99.90
4964;DHT22;2497;47.410;9.740;2023-05-29T05:28:36;14.10;99.90
4964;DHT22;2497;47.410;9.740;2023-05-29T05:31:03;14.10;99.90
4964;DHT22;2497;47.410;9.740;2023-05-29T05:33:30;14.20;99.90
4964;DHT22;2497;47.410;9.740;2023-05-29T05:35:57;14.30;99.90
4964;DHT22;2497;47.410;9.740;2023-05-29T05:38:28;14.50;99.90
4964;DHT22;2497;47.410;9.740;2023-05-29T05:40:55;14.60;99.90
4964;DHT22;2497;47.410;9.740;2023-05-29T05:43:22;14.70;99.90
4964;DHT22;2497;47.410;9.740;2023-05-29T05:45:53;14.80;99.90
4964;DHT22;2497;47.410;9.740;2023-05-29T05:48:23;14.90;99.90
4964;DHT22;2497;47.410;9.740;2023-05-29T05:50:50;14.90;99.90
4964;DHT22;2497;47.410;9.740;2023-05-29T05:53:17;14.90;99.90
4964;DHT22;2497;47.410;9.740;2023-05-29T05:55:44;14.80;99.90
4964;DHT22;2497;47.410;9.740;2023-05-29T05:58:11;14.80;99.90
4964;DHT22;2497;47.410;9.740;2023-05-29T06:00:39;14.90;99.90
4964;DHT22;2497;47.410;9.740;2023-05-29T06:03:09;14.90;99.90
4964;DHT22;2497;47.410;9.740;2023-05-29T06:05:37;15.00;99.90
4964;DHT22;2497;47.410;9.740;2023-05-29T06:08:07;15.10;99.90
4964;DHT22;2497;47.410;9.740;2023-05-29T06:10:34;15.20;99.90
4964;DHT22;2497;47.410;9.740;2023-05-29T06:13:01;15.20;99.90
4964;DHT22;2497;47.410;9.740;2023-05-29T06:15:28;15.40;99.90
4964;DHT22;2497;47.410;9.740;2023-05-29T06:17:56;15.40;99.90
4964;DHT22;2497;47.410;9.740;2023-05-29T06:20:24;15.50;99.90
4964;DHT22;2497;47.410;9.740;2023-05-29T06:22:51;15.60;99.90
4964;DHT22;2497;47.410;9.740;2023-05-29T06:25:19;15.70;99.90
4964;DHT22;2497;47.410;9.740;2023-05-29T06:27:47;15.70;99.90
4964;DHT22;2497;47.410;9.740;2023-05-29T06:30:15;15.80;99.90
4964;DHT22;2497;47.410;9.740;2023-05-29T06:32:42;15.80;99.90
4964;DHT22;2497;47.410;9.740;2023-05-29T06:35:09;15.90;99.90
4964;DHT22;2497;47.410;9.740;2023-05-29T06:37:38;16.00;99.90
4964;DHT22;2497;47.410;9.740;2023-05-29T06:40:06;16.00;99.90
4964;DHT22;2497;47.410;9.740;2023-05-29T06:42:33;15.90;99.90
4964;DHT22;2497;47.410;9.740;2023-05-29T06:45:04;16.00;99.90
4964;DHT22;2497;47.410;9.740;2023-05-29T06:47:31;16.20;99.90
4964;DHT22;2497;47.410;9.740;2023-05-29T06:49:58;16.30;99.90
4964;DHT22;2497;47.410;9.740;2023-05-29T06:52:25;16.40;99.90
4964;DHT22;2497;47.410;9.740;2023-05-29T06:54:53;16.30;99.90
4964;DHT22;2497;47.410;9.740;2023-05-29T06:57:22;16.50;99.90
4964;DHT22;2497;47.410;9.740;2023-05-29T06:59:49;16.40;99.90
4964;DHT22;2497;47.410;9.740;2023-05-29T07:02:16;16.60;99.90
4964;DHT22;2497;47.410;9.740;2023-05-29T07:04:43;16.70;99.90
4964;DHT22;2497;47.410;9.740;2023-05-29T07:07:10;16.70;99.90
4964;DHT22;2497;47.410;9.740;2023-05-29T07:09:37;16.70;99.90
4964;DHT22;2497;47.410;9.740;2023-05-29T07:12:07;16.90;99.90
4964;DHT22;2497;47.410;9.740;2023-05-29T07:14:34;17.10;99.90
4964;DHT22;2497;47.410;9.740;2023-05-29T07:17:01;17.20;99.90
4964;DHT22;2497;47.410;9.740;2023-05-29T07:19:29;17.20;99.90
4964;DHT22;2497;47.410;9.740;2023-05-29T07:21:58;17.20;99.90
4964;DHT22;2497;47.410;9.740;2023-05-29T07:24:25;17.30;99.90
4964;DHT22;2497;47.410;9.740;2023-05-29T07:26:52;17.40;99.90
4964;DHT22;2497;47.410;9.740;2023-05-29T07:29:22;17.50;99.90
4964;DHT22;2497;47.410;9.740;2023-05-29T07:31:50;17.40;99.90
4964;DHT22;2497;47.410;9.740;2023-05-29T07:34:18;17.50;99.90
4964;DHT22;2497;47.410;9.740;2023-05-29T07:37:00;17.70;99.90
4964;DHT22;2497;47.410;9.740;2023-05-29T07:39:32;17.90;99.90
4964;DHT22;2497;47.410;9.740;2023-05-29T07:42:03;18.30;99.90
4964;DHT22;2497;47.410;9.740;2023-05-29T07:44:32;18.40;99.90
4964;DHT22;2497;47.410;9.740;2023-05-29T07:46:59;18.40;99.90
4964;DHT22;2497;47.410;9.740;2023-05-29T07:49:27;18.60;99.90
4964;DHT22;2497;47.410;9.740;2023-05-29T07:51:54;18.90;99.90
4964;DHT22;2497;47.410;9.740;2023-05-29T07:54:21;19.30;99.90
4964;DHT22;2497;47.410;9.740;2023-05-29T07:56:49;19.70;99.90
4964;DHT22;2497;47.410;9.740;2023-05-29T07:59:16;19.80;99.90
4964;DHT22;2497;47.410;9.740;2023-05-29T08:01:45;20.20;99.90
4964;DHT22;2497;47.410;9.740;2023-05-29T08:04:13;20.60;99.90
4964;DHT22;2497;47.410;9.740;2023-05-29T08:06:40;20.40;99.90
4964;DHT22;2497;47.410;9.740;2023-05-29T08:09:09;20.30;99.90
4964;DHT22;2497;47.410;9.740;2023-05-29T08:11:37;20.60;99.90
4964;DHT22;2497;47.410;9.740;2023-05-29T08:14:04;21.90;99.90
4964;DHT22;2497;47.410;9.740;2023-05-29T08:16:35;22.20;99.90
4964;DHT22;2497;47.410;9.740;2023-05-29T08:19:06;22.90;99.90
4964;DHT22;2497;47.410;9.740;2023-05-29T08:21:34;23.70;99.90
4964;DHT22;2497;47.410;9.740;2023-05-29T08:24:02;24.00;99.90
4964;DHT22;2497;47.410;9.740;2023-05-29T08:26:30;24.00;99.90
4964;DHT22;2497;47.410;9.740;2023-05-29T08:28:57;23.70;99.90
4964;DHT22;2497;47.410;9.740;2023-05-29T08:31:25;23.40;99.90
4964;DHT22;2497;47.410;9.740;2023-05-29T08:33:52;23.10;99.90
4964;DHT22;2497;47.410;9.740;2023-05-29T08:36:21;22.70;99.90
4964;DHT22;2497;47.410;9.740;2023-05-29T08:38:49;22.60;99.90
4964;DHT22;2497;47.410;9.740;2023-05-29T08:41:20;22.40;99.90
4964;DHT22;2497;47.410;9.740;2023-05-29T08:43:50;22.20;99.90
4964;DHT22;2497;47.410;9.740;2023-05-29T08:46:19;22.00;99.90
4964;DHT22;2497;47.410;9.740;2023-05-29T08:48:48;23.20;99.90
4964;DHT22;2497;47.410;9.740;2023-05-29T08:51:21;22.70;99.90
4964;DHT22;2497;47.410;9.740;2023-05-29T08:53:56;22.70;99.90
4964;DHT22;2497;47.410;9.740;2023-05-29T08:56:23;23.30;99.90
4964;DHT22;2497;47.410;9.740;2023-05-29T08:58:50;23.50;99.90
4964;DHT22;2497;47.410;9.740;2023-05-29T09:01:18;23.40;99.90
4964;DHT22;2497;47.410;9.740;2023-05-29T09:03:46;24.20;99.90
4964;DHT22;2497;47.410;9.740;2023-05-29T09:06:14;24.20;99.90
4964;DHT22;2497;47.410;9.740;2023-05-29T09:08:45;23.90;99.90
4964;DHT22;2497;47.410;9.740;2023-05-29T09:11:12;23.70;99.90
4964;DHT22;2497;47.410;9.740;2023-05-29T09:13:39;23.70;99.90
4964;DHT22;2497;47.410;9.740;2023-05-29T09:16:09;23.30;99.90
4964;DHT22;2497;47.410;9.740;2023-05-29T09:18:36;23.40;99.90
4964;DHT22;2497;47.410;9.740;2023-05-29T09:21:06;23.50;99.90
4964;DHT22;2497;47.410;9.740;2023-05-29T09:23:35;24.50;99.90
4964;DHT22;2497;47.410;9.740;2023-05-29T09:26:03;23.90;99.90
4964;DHT22;2497;47.410;9.740;2023-05-29T09:28:32;23.90;99.90
4964;DHT22;2497;47.410;9.740;2023-05-29T09:30:59;24.40;99.90
4964;DHT22;2497;47.410;9.740;2023-05-29T09:33:29;24.10;99.90
4964;DHT22;2497;47.410;9.740;2023-05-29T09:35:56;24.30;99.90
4964;DHT22;2497;47.410;9.740;2023-05-29T09:38:30;25.10;99.90
4964;DHT22;2497;47.410;9.740;2023-05-29T09:41:05;26.30;99.90
4964;DHT22;2497;47.410;9.740;2023-05-29T09:43:32;27.20;99.90
4964;DHT22;2497;47.410;9.740;2023-05-29T09:46:01;27.50;99.90
4964;DHT22;2497;47.410;9.740;2023-05-29T09:48:29;26.90;99.90
4964;DHT22;2497;47.410;9.740;2023-05-29T09:50:56;26.60;99.90
4964;DHT22;2497;47.410;9.740;2023-05-29T09:53:25;26.30;99.90
4964;DHT22;2497;47.410;9.740;2023-05-29T09:55:54;26.60;99.90
4964;DHT22;2497;47.410;9.740;2023-05-29T09:58:25;26.60;99.90
4964;DHT22;2497;47.410;9.740;2023-05-29T10:00:52;27.40;99.90
4964;DHT22;2497;47.410;9.740;2023-05-29T10:03:21;27.20;99.90
4964;DHT22;2497;47.410;9.740;2023-05-29T10:05:50;27.10;99.90
4964;DHT22;2497;47.410;9.740;2023-05-29T10:08:22;26.80;99.90
4964;DHT22;2497;47.410;9.740;2023-05-29T10:10:56;26.70;99.90
4964;DHT22;2497;47.410;9.740;2023-05-29T10:13:28;26.50;99.90
4964;DHT22;2497;47.410;9.740;2023-05-29T10:16:01;26.40;99.90
4964;DHT22;2497;47.410;9.740;2023-05-29T10:18:35;26.70;99.90
4964;DHT22;2497;47.410;9.740;2023-05-29T10:21:07;27.00;99.90
4964;DHT22;2497;47.410;9.740;2023-05-29T10:23:38;27.10;99.90
4964;DHT22;2497;47.410;9.740;2023-05-29T10:26:11;27.00;99.90
4964;DHT22;2497;47.410;9.740;2023-05-29T10:28:46;27.20;99.90
4964;DHT22;2497;47.410;9.740;2023-05-29T10:31:20;27.30;99.90
4964;DHT22;2497;47.410;9.740;2023-05-29T10:33:58;27.70;99.90
4964;DHT22;2497;47.410;9.740;2023-05-29T10:36:32;27.80;99.90
4964;DHT22;2497;47.410;9.740;2023-05-29T10:39:04;27.90;99.90
4964;DHT22;2497;47.410;9.740;2023-05-29T10:41:32;28.10;99.90
4964;DHT22;2497;47.410;9.740;2023-05-29T10:44:39;28.70;99.90
4964;DHT22;2497;47.410;9.740;2023-05-29T10:47:08;28.80;99.90
4964;DHT22;2497;47.410;9.740;2023-05-29T10:49:43;28.70;99.90
4964;DHT22;2497;47.410;9.740;2023-05-29T10:52:18;29.00;99.90
4964;DHT22;2497;47.410;9.740;2023-05-29T10:54:53;29.30;99.90
4964;DHT22;2497;47.410;9.740;2023-05-29T10:57:23;29.80;99.90
4964;DHT22;2497;47.410;9.740;2023-05-29T11:00:03;30.80;99.90
4964;DHT22;2497;47.410;9.740;2023-05-29T11:02:38;30.70;99.90
4964;DHT22;2497;47.410;9.740;2023-05-29T11:05:18;30.70;99.90
4964;DHT22;2497;47.410;9.740;2023-05-29T11:07:57;31.50;99.90
4964;DHT22;2497;47.410;9.740;2023-05-29T11:10:43;31.50;99.90
4964;DHT22;2497;47.410;9.740;2023-05-29T11:13:22;31.10;99.90
4964;DHT22;2497;47.410;9.740;2023-05-29T11:16:11;30.70;99.90
4964;DHT22;2497;47.410;9.740;2023-05-29T11:18:44;31.20;99.90
4964;DHT22;2497;47.410;9.740;2023-05-29T11:21:23;31.30;99.90
4964;DHT22;2497;47.410;9.740;2023-05-29T11:23:53;31.70;99.90
4964;DHT22;2497;47.410;9.740;2023-05-29T11:26:21;31.90;99.90
4964;DHT22;2497;47.410;9.740;2023-05-29T11:28:49;32.00;99.90
4964;DHT22;2497;47.410;9.740;2023-05-29T11:31:24;32.80;99.90
4964;DHT22;2497;47.410;9.740;2023-05-29T11:33:54;32.30;99.90
4964;DHT22;2497;47.410;9.740;2023-05-29T11:36:25;32.40;99.90
4964;DHT22;2497;47.410;9.740;2023-05-29T11:38:56;32.60;99.90
4964;DHT22;2497;47.410;9.740;2023-05-29T11:41:23;32.80;99.90
4964;DHT22;2497;47.410;9.740;2023-05-29T11:43:58;33.10;99.90
4964;DHT22;2497;47.410;9.740;2023-05-29T11:46:26;33.30;99.90
4964;DHT22;2497;47.410;9.740;2023-05-29T11:48:56;33.20;99.90
4964;DHT22;2497;47.410;9.740;2023-05-29T11:51:42;33.90;99.90
4964;DHT22;2497;47.410;9.740;2023-05-29T11:54:13;33.80;99.90
4964;DHT22;2497;47.410;9.740;2023-05-29T11:56:42;33.60;99.90
4964;DHT22;2497;47.410;9.740;2023-05-29T11:59:11;33.40;99.90
4964;DHT22;2497;47.410;9.740;2023-05-29T12:01:41;33.50;99.90
4964;DHT22;2497;47.410;9.740;2023-05-29T12:04:15;33.60;99.90
4964;DHT22;2497;47.410;9.740;2023-05-29T12:06:42;34.80;99.90
4964;DHT22;2497;47.410;9.740;2023-05-29T12:09:23;35.90;99.90
4964;DHT22;2497;47.410;9.740;2023-05-29T12:11:51;36.40;99.90
4964;DHT22;2497;47.410;9.740;2023-05-29T12:14:26;36.30;99.90
4964;DHT22;2497;47.410;9.740;2023-05-29T12:16:54;36.00;99.90
4964;DHT22;2497;47.410;9.740;2023-05-29T12:19:23;36.20;99.90
4964;DHT22;2497;47.410;9.740;2023-05-29T12:21:57;36.00;99.90
4964;DHT22;2497;47.410;9.740;2023-05-29T12:24:24;35.80;99.90
4964;DHT22;2497;47.410;9.740;2023-05-29T12:26:51;36.30;99.90
4964;DHT22;2497;47.410;9.740;2023-05-29T12:29:29;36.10;99.90
4964;DHT22;2497;47.410;9.740;2023-05-29T12:32:03;36.40;99.90
4964;DHT22;2497;47.410;9.740;2023-05-29T12:34:34;36.40;99.90
4964;DHT22;2497;47.410;9.740;2023-05-29T12:37:07;37.00;99.90
4964;DHT22;2497;47.410;9.740;2023-05-29T12:39:35;37.20;99.90
4964;DHT22;2497;47.410;9.740;2023-05-29T12:42:03;37.00;99.90
4964;DHT22;2497;47.410;9.740;2023-05-29T12:44:31;37.00;99.90
4964;DHT22;2497;47.410;9.740;2023-05-29T12:47:00;36.80;99.90
4964;DHT22;2497;47.410;9.740;2023-05-29T12:49:27;36.60;99.90
4964;DHT22;2497;47.410;9.740;2023-05-29T12:51:54;36.90;99.90
4964;DHT22;2497;47.410;9.740;2023-05-29T12:54:21;36.60;99.90
4964;DHT22;2497;47.410;9.740;2023-05-29T12:56:49;36.80;99.90
4964;DHT22;2497;47.410;9.740;2023-05-29T12:59:17;37.30;99.90
4964;DHT22;2497;47.410;9.740;2023-05-29T13:01:45;37.30;99.90
4964;DHT22;2497;47.410;9.740;2023-05-29T13:04:13;37.50;99.90
4964;DHT22;2497;47.410;9.740;2023-05-29T13:06:41;37.00;99.90
4964;DHT22;2497;47.410;9.740;2023-05-29T13:09:10;37.70;99.90
4964;DHT22;2497;47.410;9.740;2023-05-29T13:11:40;38.10;99.90
4964;DHT22;2497;47.410;9.740;2023-05-29T13:14:14;38.50;99.90
4964;DHT22;2497;47.410;9.740;2023-05-29T13:16:43;36.80;99.90
4964;DHT22;2497;47.410;9.740;2023-05-29T13:19:14;36.30;99.90
4964;DHT22;2497;47.410;9.740;2023-05-29T13:21:41;35.80;99.90
4964;DHT22;2497;47.410;9.740;2023-05-29T13:24:13;35.00;99.90
4964;DHT22;2497;47.410;9.740;2023-05-29T13:26:40;34.70;99.90
4964;DHT22;2497;47.410;9.740;2023-05-29T13:29:08;35.20;99.90
4964;DHT22;2497;47.410;9.740;2023-05-29T13:31:37;36.10;99.90
4964;DHT22;2497;47.410;9.740;2023-05-29T13:34:04;36.70;99.90
4964;DHT22;2497;47.410;9.740;2023-05-29T13:36:32;35.00;99.90
4964;DHT22;2497;47.410;9.740;2023-05-29T13:38:59;33.90;99.90
4964;DHT22;2497;47.410;9.740;2023-05-29T13:41:27;32.90;99.90
4964;DHT22;2497;47.410;9.740;2023-05-29T13:43:55;32.30;99.90
4964;DHT22;2497;47.410;9.740;2023-05-29T13:46:22;33.60;99.90
4964;DHT22;2497;47.410;9.740;2023-05-29T13:48:50;34.50;99.90
4964;DHT22;2497;47.410;9.740;2023-05-29T13:51:18;33.80;99.90
4964;DHT22;2497;47.410;9.740;2023-05-29T13:53:46;33.30;99.90
4964;DHT22;2497;47.410;9.740;2023-05-29T13:56:15;32.20;99.90
4964;DHT22;2497;47.410;9.740;2023-05-29T13:58:42;31.40;99.90
4964;DHT22;2497;47.410;9.740;2023-05-29T14:01:17;32.40;99.90
4964;DHT22;2497;47.410;9.740;2023-05-29T14:03:46;33.30;99.90
4964;DHT22;2497;47.410;9.740;2023-05-29T14:06:16;33.20;99.90
4964;DHT22;2497;47.410;9.740;2023-05-29T14:08:43;32.00;99.90
4964;DHT22;2497;47.410;9.740;2023-05-29T14:11:14;31.00;99.90
4964;DHT22;2497;47.410;9.740;2023-05-29T14:13:41;30.20;99.90
4964;DHT22;2497;47.410;9.740;2023-05-29T14:16:09;30.90;99.90
4964;DHT22;2497;47.410;9.740;2023-05-29T14:18:44;32.30;99.90
4964;DHT22;2497;47.410;9.740;2023-05-29T14:21:11;33.50;99.90
4964;DHT22;2497;47.410;9.740;2023-05-29T14:23:38;33.30;99.90
4964;DHT22;2497;47.410;9.740;2023-05-29T14:26:06;31.80;99.90
4964;DHT22;2497;47.410;9.740;2023-05-29T14:28:34;31.20;99.90
4964;DHT22;2497;47.410;9.740;2023-05-29T14:31:04;31.10;99.90
4964;DHT22;2497;47.410;9.740;2023-05-29T14:33:31;30.50;99.90
4964;DHT22;2497;47.410;9.740;2023-05-29T14:35:58;30.10;99.90
4964;DHT22;2497;47.410;9.740;2023-05-29T14:38:25;30.90;99.90
4964;DHT22;2497;47.410;9.740;2023-05-29T14:40:52;31.20;99.90
4964;DHT22;2497;47.410;9.740;2023-05-29T14:43:21;30.30;99.90
4964;DHT22;2497;47.410;9.740;2023-05-29T14:45:54;29.40;99.90
4964;DHT22;2497;47.410;9.740;2023-05-29T14:48:21;28.60;99.90
4964;DHT22;2497;47.410;9.740;2023-05-29T14:50:48;29.00;99.90
4964;DHT22;2497;47.410;9.740;2023-05-29T14:53:15;30.00;99.90
4964;DHT22;2497;47.410;9.740;2023-05-29T14:55:43;31.20;99.90
4964;DHT22;2497;47.410;9.740;2023-05-29T14:58:10;31.90;99.90
4964;DHT22;2497;47.410;9.740;2023-05-29T15:00:44;32.30;99.90
4964;DHT22;2497;47.410;9.740;2023-05-29T15:03:14;33.40;99.90
4964;DHT22;2497;47.410;9.740;2023-05-29T15:05:43;33.00;99.90
4964;DHT22;2497;47.410;9.740;2023-05-29T15:08:21;31.80;99.90
4964;DHT22;2497;47.410;9.740;2023-05-29T15:10:48;30.20;99.90
4964;DHT22;2497;47.410;9.740;2023-05-29T15:13:18;29.00;99.90
4964;DHT22;2497;47.410;9.740;2023-05-29T15:15:47;29.10;99.90
4964;DHT22;2497;47.410;9.740;2023-05-29T15:18:16;29.00;99.90
4964;DHT22;2497;47.410;9.740;2023-05-29T15:20:45;28.60;99.90
4964;DHT22;2497;47.410;9.740;2023-05-29T15:23:13;28.80;99.90
4964;DHT22;2497;47.410;9.740;2023-05-29T15:25:46;28.90;99.90
4964;DHT22;2497;47.410;9.740;2023-05-29T15:28:13;28.70;99.90
4964;DHT22;2497;47.410;9.740;2023-05-29T15:30:43;28.60;99.90
4964;DHT22;2497;47.410;9.740;2023-05-29T15:33:10;28.40;99.90
4964;DHT22;2497;47.410;9.740;2023-05-29T15:35:40;28.00;99.90
4964;DHT22;2497;47.410;9.740;2023-05-29T15:38:08;27.50;99.90
4964;DHT22;2497;47.410;9.740;2023-05-29T15:40:38;27.30;99.90
4964;DHT22;2497;47.410;9.740;2023-05-29T15:43:05;27.20;99.90
4964;DHT22;2497;47.410;9.740;2023-05-29T15:45:36;27.00;99.90
4964;DHT22;2497;47.410;9.740;2023-05-29T15:48:03;26.80;99.90
4964;DHT22;2497;47.410;9.740;2023-05-29T15:50:32;26.50;99.90
4964;DHT22;2497;47.410;9.740;2023-05-29T15:53:00;26.30;99.90
4964;DHT22;2497;47.410;9.740;2023-05-29T15:55:34;26.20;99.90
4964;DHT22;2497;47.410;9.740;2023-05-29T15:58:01;26.10;99.90
4964;DHT22;2497;47.410;9.740;2023-05-29T16:00:29;26.00;99.90
4964;DHT22;2497;47.410;9.740;2023-05-29T16:02:56;25.80;99.90
4964;DHT22;2497;47.410;9.740;2023-05-29T16:05:25;25.60;99.90
4964;DHT22;2497;47.410;9.740;2023-05-29T16:07:56;25.50;99.90
4964;DHT22;2497;47.410;9.740;2023-05-29T16:10:24;25.50;99.90
4964;DHT22;2497;47.410;9.740;2023-05-29T16:12:52;25.40;99.90
4964;DHT22;2497;47.410;9.740;2023-05-29T16:15:20;25.30;99.90